createdAt,value
2023-03-15T00:00:56.714Z,1.58
2023-03-15T00:03:26.838Z,1.17
2023-03-15T00:05:53.936Z,2.30
2023-03-15T00:08:22.149Z,0.80
2023-03-15T00:10:49.563Z,0.55
2023-03-15T00:13:17.593Z,2.47
2023-03-15T00:15:56.826Z,5.75
2023-03-15T00:18:28.668Z,2.83
2023-03-15T00:21:02.059Z,4.15
2023-03-15T00:23:44.895Z,5.40
2023-03-15T00:26:12.131Z,2.95
2023-03-15T00:31:48.525Z,1.45
2023-03-15T00:34:15.873Z,2.65
2023-03-15T00:37:46.216Z,1.80
2023-03-15T00:40:17.814Z,2.70
2023-03-15T00:42:53.021Z,2.65
2023-03-15T00:45:24.467Z,3.63
2023-03-15T00:48:22.967Z,2.28
2023-03-15T00:53:58.825Z,1.50
2023-03-15T00:56:55.452Z,4.15
2023-03-15T01:00:03.015Z,3.67
2023-03-15T01:03:45.692Z,1.45
2023-03-15T01:06:55.958Z,4.05
2023-03-15T01:09:26.383Z,4.93
2023-03-15T01:11:54.027Z,5.95
2023-03-15T01:14:54.055Z,3.30
2023-03-15T01:18:35.715Z,3.38
2023-03-15T01:22:04.680Z,2.22
2023-03-15T01:28:10.529Z,2.80
2023-03-15T01:33:51.802Z,4.85
2023-03-15T01:34:07.212Z,4.22
2023-03-15T01:37:15.656Z,3.88
2023-03-15T01:40:03.130Z,11.05
2023-03-15T01:42:30.547Z,3.67
2023-03-15T01:45:24.531Z,2.05
2023-03-15T01:48:28.720Z,4.10
2023-03-15T01:51:22.230Z,1.90
2023-03-15T01:54:39.125Z,7.90
2023-03-15T01:57:30.765Z,2.58
2023-03-15T02:03:57.396Z,1.88
2023-03-15T02:06:35.424Z,4.43
2023-03-15T02:13:26.654Z,1.60
2023-03-15T02:16:59.749Z,3.40
2023-03-15T02:23:18.239Z,6.18
2023-03-15T02:32:59.803Z,4.45
2023-03-15T02:36:01.411Z,2.60
2023-03-15T02:41:40.588Z,5.65
2023-03-15T02:44:18.663Z,3.17
2023-03-15T02:46:46.347Z,4.22
2023-03-15T02:49:20.867Z,3.45
2023-03-15T02:51:47.661Z,3.28
2023-03-15T02:54:14.430Z,6.80
2023-03-15T02:56:41.257Z,9.23
2023-03-15T02:59:08.163Z,8.50
2023-03-15T03:01:37.294Z,6.47
2023-03-15T03:04:04.308Z,2.17
2023-03-15T03:06:31.395Z,3.17
2023-03-15T03:08:58.226Z,6.05
2023-03-15T03:11:25.136Z,10.52
2023-03-15T03:13:52.212Z,5.30
2023-03-15T03:16:19.040Z,2.83
2023-03-15T03:18:45.962Z,5.70
2023-03-15T03:21:14.935Z,4.85
2023-03-15T03:23:42.072Z,6.18
2023-03-15T03:26:16.820Z,5.32
2023-03-15T03:28:45.283Z,3.35
2023-03-15T03:31:21.164Z,2.85
2023-03-15T03:33:48.194Z,7.20
2023-03-15T03:36:15.254Z,5.28
2023-03-15T03:38:46.288Z,6.65
2023-03-15T03:41:14.049Z,2.72
2023-03-15T03:43:40.947Z,7.47
2023-03-15T03:46:08.024Z,5.85
2023-03-15T03:48:35.140Z,2.80
2023-03-15T03:51:01.994Z,5.28
2023-03-15T03:53:31.601Z,6.70
2023-03-15T03:55:58.416Z,6.40
2023-03-15T03:58:25.298Z,7.68
2023-03-15T04:01:05.613Z,6.90
2023-03-15T04:03:35.474Z,9.93
2023-03-15T04:06:08.858Z,6.10
2023-03-15T04:08:42.173Z,2.75
2023-03-15T04:11:08.996Z,5.97
2023-03-15T04:13:38.541Z,7.40
2023-03-15T04:16:07.126Z,10.07
2023-03-15T04:18:33.962Z,6.22
2023-03-15T04:21:06.647Z,5.65
2023-03-15T04:23:34.673Z,11.27
2023-03-15T04:26:05.719Z,7.28
2023-03-15T04:28:32.649Z,9.80
2023-03-15T04:30:59.743Z,7.85
2023-03-15T04:33:29.873Z,8.10
2023-03-15T04:35:57.485Z,7.57
2023-03-15T04:38:28.078Z,7.50
2023-03-15T04:40:57.547Z,8.27
2023-03-15T04:43:24.558Z,9.90
2023-03-15T04:45:51.887Z,11.10
2023-03-15T04:48:18.740Z,7.68
2023-03-15T04:50:45.635Z,4.93
2023-03-15T04:53:15.563Z,9.32
2023-03-15T04:55:42.369Z,8.07
2023-03-15T05:00:50.147Z,9.48
2023-03-15T05:03:16.946Z,9.32
2023-03-15T05:05:45.022Z,5.43
2023-03-15T05:08:12.503Z,5.30
2023-03-15T05:10:45.618Z,6.88
2023-03-15T05:13:12.370Z,6.70
2023-03-15T05:15:39.195Z,6.90
2023-03-15T05:18:06.204Z,8.20
2023-03-15T05:20:37.552Z,7.10
2023-03-15T05:23:04.841Z,8.45
2023-03-15T05:25:31.857Z,9.60
2023-03-15T05:27:59.231Z,10.68
2023-03-15T05:30:26.176Z,10.13
2023-03-15T05:32:53.090Z,5.90
2023-03-15T05:35:20.419Z,12.70
2023-03-15T05:37:47.702Z,14.30
2023-03-15T05:40:17.851Z,7.47
2023-03-15T05:42:46.207Z,11.32
2023-03-15T05:45:13.093Z,5.00
2023-03-15T05:47:51.275Z,8.20
2023-03-15T05:50:38.753Z,10.93
2023-03-15T05:53:11.281Z,7.18
2023-03-15T05:55:41.276Z,9.95
2023-03-15T05:58:13.904Z,8.75
2023-03-15T06:00:44.541Z,8.88
2023-03-15T06:03:11.963Z,7.82
2023-03-15T06:05:46.138Z,8.07
2023-03-15T06:10:46.542Z,12.68
2023-03-15T06:13:13.599Z,6.53
2023-03-15T06:15:40.479Z,10.10
2023-03-15T06:18:08.217Z,7.25
2023-03-15T06:20:35.555Z,12.25
2023-03-15T06:23:02.565Z,7.93
2023-03-15T06:25:35.271Z,6.63
2023-03-15T06:28:02.242Z,12.25
2023-03-15T06:30:29.198Z,9.32
2023-03-15T06:32:56.052Z,12.48
2023-03-15T06:35:23.174Z,12.02
2023-03-15T06:37:50.114Z,12.52
2023-03-15T06:40:17.331Z,12.73
2023-03-15T06:42:44.321Z,14.82
2023-03-15T06:45:11.627Z,10.35
2023-03-15T06:47:38.625Z,13.77
2023-03-15T06:50:07.583Z,12.43
2023-03-15T06:52:34.419Z,14.35
2023-03-15T06:55:01.294Z,11.30
2023-03-15T06:57:28.055Z,10.68
2023-03-15T06:59:57.329Z,11.88
2023-03-15T07:02:24.144Z,10.40
2023-03-15T07:04:51.076Z,16.40
2023-03-15T07:07:17.843Z,13.80
2023-03-15T07:09:44.984Z,15.07
2023-03-15T07:12:11.975Z,17.38
2023-03-15T07:14:41.817Z,14.50
2023-03-15T07:17:08.594Z,19.05
2023-03-15T07:19:37.306Z,14.20
2023-03-15T07:22:08.212Z,14.48
2023-03-15T07:24:34.983Z,16.65
2023-03-15T07:27:01.798Z,17.30
2023-03-15T07:29:28.857Z,19.70
2023-03-15T07:31:55.929Z,19.85
2023-03-15T07:34:22.762Z,18.40
2023-03-15T07:36:49.687Z,22.02
2023-03-15T07:39:17.371Z,19.25
2023-03-15T07:41:44.261Z,16.58
2023-03-15T07:44:11.064Z,17.77
2023-03-15T07:46:41.587Z,18.00
2023-03-15T07:49:08.490Z,20.13
2023-03-15T07:51:35.830Z,21.65
2023-03-15T07:54:02.669Z,19.05
2023-03-15T07:56:29.714Z,18.95
2023-03-15T07:58:58.913Z,17.05
2023-03-15T08:01:26.046Z,18.65
2023-03-15T08:03:56.127Z,17.45
2023-03-15T08:06:23.467Z,20.13
2023-03-15T08:08:50.514Z,14.65
2023-03-15T08:11:17.569Z,13.95
2023-03-15T08:13:44.819Z,13.02
2023-03-15T08:16:13.585Z,9.88
2023-03-15T08:18:40.546Z,10.10
2023-03-15T08:21:07.463Z,10.93
2023-03-15T08:23:34.350Z,9.32
2023-03-15T08:26:01.538Z,7.75
2023-03-15T08:28:28.386Z,9.05
2023-03-15T08:30:55.232Z,9.57
2023-03-15T08:33:22.383Z,6.18
2023-03-15T08:35:55.783Z,4.95
2023-03-15T08:38:23.097Z,5.68
2023-03-15T08:40:50.319Z,4.00
2023-03-15T08:43:17.242Z,5.68
2023-03-15T08:46:00.077Z,4.05
2023-03-15T08:48:28.423Z,6.22
2023-03-15T08:50:55.233Z,3.63
2023-03-15T08:53:22.054Z,4.22
2023-03-15T08:55:49.714Z,5.10
2023-03-15T08:58:16.664Z,4.05
2023-03-15T09:00:43.561Z,5.40
2023-03-15T09:03:11.378Z,2.90
2023-03-15T09:05:38.214Z,2.60
2023-03-15T09:08:05.597Z,4.05
2023-03-15T09:10:34.714Z,5.82
2023-03-15T09:13:01.521Z,5.30
2023-03-15T09:15:28.448Z,5.45
2023-03-15T09:17:55.284Z,3.95
2023-03-15T09:20:23.963Z,3.75
2023-03-15T09:22:52.643Z,5.38
2023-03-15T09:25:19.870Z,4.53
2023-03-15T09:27:46.871Z,3.42
2023-03-15T09:30:14.167Z,1.42
2023-03-15T09:32:41.587Z,1.85
2023-03-15T09:35:10.648Z,2.92
2023-03-15T09:37:37.683Z,1.33
2023-03-15T09:40:05.123Z,2.28
2023-03-15T09:42:35.765Z,2.75
2023-03-15T09:45:26.289Z,1.80
2023-03-15T09:48:38.039Z,4.22
2023-03-15T09:51:15.107Z,1.95
2023-03-15T09:53:43.632Z,0.82
2023-03-15T09:56:28.422Z,1.25
2023-03-15T09:58:58.813Z,6.85
2023-03-15T10:01:34.534Z,2.35
2023-03-15T10:04:14.529Z,1.90
2023-03-15T10:06:46.365Z,6.18
2023-03-15T10:09:16.147Z,3.03
2023-03-15T10:12:01.852Z,3.83
2023-03-15T10:14:44.827Z,4.63
2023-03-15T10:17:13.509Z,0.90
2023-03-15T10:19:48.504Z,3.58
2023-03-15T10:22:51.308Z,4.65
2023-03-15T10:25:29.046Z,3.53
2023-03-15T10:28:04.687Z,2.13
2023-03-15T10:30:33.486Z,2.97
2023-03-15T10:33:29.910Z,1.50
2023-03-15T10:36:09.707Z,1.08
2023-03-15T10:38:37.325Z,0.68
2023-03-15T10:41:05.184Z,1.90
2023-03-15T10:43:35.840Z,3.30
2023-03-15T10:46:22.772Z,2.10
2023-03-15T10:48:58.537Z,0.60
2023-03-15T10:51:29.242Z,0.65
2023-03-15T10:53:56.852Z,1.35
2023-03-15T10:56:26.211Z,1.33
2023-03-15T10:59:09.462Z,2.15
2023-03-15T11:01:39.207Z,2.47
2023-03-15T11:04:23.408Z,2.67
2023-03-15T11:06:52.873Z,0.90
2023-03-15T11:09:23.877Z,1.65
2023-03-15T11:11:55.329Z,1.70
2023-03-15T11:14:22.329Z,0.65
2023-03-15T11:16:55.037Z,2.65
2023-03-15T11:19:24.121Z,1.08
2023-03-15T11:21:51.655Z,0.65
2023-03-15T11:24:25.819Z,2.42
2023-03-15T11:26:55.108Z,3.90
2023-03-15T11:29:27.884Z,1.42
2023-03-15T11:31:55.262Z,2.35
2023-03-15T11:34:24.900Z,1.00
2023-03-15T11:37:05.577Z,3.15
2023-03-15T11:40:10.566Z,2.78
2023-03-15T11:42:51.189Z,1.13
2023-03-15T11:45:29.908Z,2.90
2023-03-15T11:47:58.414Z,0.73
2023-03-15T11:50:28.029Z,1.92
2023-03-15T11:52:54.945Z,2.00
2023-03-15T11:55:26.493Z,1.23
2023-03-15T11:57:53.640Z,1.52
2023-03-15T12:00:27.229Z,2.83
2023-03-15T12:02:58.830Z,1.70
2023-03-15T12:05:51.401Z,1.10
2023-03-15T12:08:34.588Z,2.40
2023-03-15T12:11:01.800Z,3.90
2023-03-15T12:13:30.302Z,2.13
2023-03-15T12:16:00.162Z,3.38
2023-03-15T12:18:31.280Z,0.50
2023-03-15T12:21:22.253Z,1.25
2023-03-15T12:24:06.243Z,1.00
2023-03-15T12:26:39.375Z,1.23
2023-03-15T12:29:18.762Z,1.45
2023-03-15T12:32:02.647Z,1.85
2023-03-15T12:34:49.587Z,2.75
2023-03-15T12:37:43.619Z,1.02
2023-03-15T12:40:16.873Z,1.27
2023-03-15T12:42:46.697Z,2.65
2023-03-15T12:45:16.928Z,2.25
2023-03-15T12:48:06.615Z,1.08
2023-03-15T12:50:50.928Z,2.05
2023-03-15T12:55:47.645Z,2.10
2023-03-15T12:58:17.084Z,0.63
2023-03-15T13:00:44.534Z,2.95
2023-03-15T13:03:16.762Z,1.23
2023-03-15T13:06:03.786Z,1.95
2023-03-15T13:08:43.688Z,0.95
2023-03-15T13:11:13.714Z,2.05
2023-03-15T13:14:00.365Z,4.97
2023-03-15T13:16:33.515Z,4.80
2023-03-15T13:19:25.268Z,0.40
2023-03-15T13:22:04.149Z,1.00
2023-03-15T13:24:57.845Z,1.48
2023-03-15T13:28:06.146Z,1.92
2023-03-15T13:30:55.055Z,0.50
2023-03-15T13:33:25.290Z,2.67
2023-03-15T13:36:01.154Z,1.35
2023-03-15T13:38:32.666Z,4.40
2023-03-15T13:41:01.966Z,1.70
2023-03-15T13:43:34.252Z,2.40
2023-03-15T13:46:01.252Z,0.70
2023-03-15T13:48:29.969Z,0.88
2023-03-15T13:51:00.200Z,2.28
2023-03-15T13:53:43.183Z,1.73
2023-03-15T13:56:22.716Z,1.58
2023-03-15T13:58:49.873Z,3.20
2023-03-15T14:01:17.148Z,0.75
2023-03-15T14:03:48.277Z,1.08
2023-03-15T14:06:22.477Z,1.95
2023-03-15T14:08:49.985Z,0.90
2023-03-15T14:11:26.166Z,0.50
2023-03-15T14:13:58.528Z,2.25
2023-03-15T14:16:57.142Z,0.40
2023-03-15T14:19:32.028Z,0.75
2023-03-15T14:22:03.723Z,2.08
2023-03-15T14:24:38.492Z,1.38
2023-03-15T14:27:07.464Z,2.25
2023-03-15T14:29:38.470Z,1.35
2023-03-15T14:32:07.657Z,1.35
2023-03-15T14:35:00.884Z,0.32
2023-03-15T14:37:34.050Z,2.05
2023-03-15T14:40:24.507Z,0.50
2023-03-15T14:42:51.661Z,1.08
2023-03-15T14:45:25.086Z,1.13
2023-03-15T14:48:00.751Z,3.63
2023-03-15T14:50:33.239Z,4.90
2023-03-15T14:53:02.722Z,0.52
2023-03-15T14:55:36.194Z,1.27
2023-03-15T14:58:17.276Z,0.98
2023-03-15T15:00:51.405Z,1.10
2023-03-15T15:03:28.252Z,0.85
2023-03-15T15:05:56.280Z,1.33
2023-03-15T15:08:23.681Z,1.58
2023-03-15T15:10:56.370Z,1.50
2023-03-15T15:13:27.926Z,0.60
2023-03-15T15:15:56.574Z,2.25
2023-03-15T15:18:27.652Z,0.90
2023-03-15T15:20:56.449Z,2.55
2023-03-15T15:23:25.932Z,0.95
2023-03-15T15:25:56.945Z,0.95
2023-03-15T15:28:33.821Z,3.75
2023-03-15T15:31:01.901Z,2.90
2023-03-15T15:33:28.725Z,2.40
2023-03-15T15:35:56.784Z,2.65
2023-03-15T15:38:38.287Z,3.15
2023-03-15T15:41:06.303Z,0.45
2023-03-15T15:43:36.246Z,1.67
2023-03-15T15:46:06.139Z,0.73
2023-03-15T15:48:33.023Z,1.48
2023-03-15T15:51:00.079Z,1.70
2023-03-15T15:53:26.933Z,1.92
2023-03-15T15:55:53.666Z,1.63
2023-03-15T15:58:23.106Z,2.10
2023-03-15T16:00:50.359Z,1.38
2023-03-15T16:03:17.506Z,1.67
2023-03-15T16:05:44.374Z,2.25
2023-03-15T16:08:24.668Z,4.03
2023-03-15T16:10:51.501Z,3.33
2023-03-15T16:13:18.401Z,1.63
2023-03-15T16:15:45.368Z,1.90
2023-03-15T16:18:15.485Z,3.67
2023-03-15T16:20:42.566Z,0.88
2023-03-15T16:23:15.350Z,1.48
2023-03-15T16:25:42.240Z,2.42
2023-03-15T16:28:09.421Z,0.73
2023-03-15T16:30:36.519Z,1.95
2023-03-15T16:33:03.699Z,37.38
2023-03-15T16:35:39.461Z,0.60
2023-03-15T16:38:06.940Z,2.97
2023-03-15T16:40:34.496Z,3.72
2023-03-15T16:43:01.396Z,3.33
2023-03-15T16:45:28.740Z,3.22
2023-03-15T16:47:56.746Z,4.40
2023-03-15T16:50:23.747Z,2.25
2023-03-15T16:52:52.708Z,1.92
2023-03-15T16:55:24.665Z,1.55
2023-03-15T16:57:51.536Z,1.88
2023-03-15T17:00:20.488Z,0.95
2023-03-15T17:02:48.802Z,6.32
2023-03-15T17:05:20.810Z,3.20
2023-03-15T17:07:48.911Z,1.42
2023-03-15T17:10:26.327Z,1.70
2023-03-15T17:12:54.276Z,2.90
2023-03-15T17:15:26.132Z,0.85
2023-03-15T17:17:53.634Z,4.53
2023-03-15T17:20:22.227Z,4.55
2023-03-15T17:22:50.178Z,1.77
2023-03-15T17:25:17.729Z,8.38
2023-03-15T17:27:45.263Z,4.00
2023-03-15T17:30:28.696Z,2.97
2023-03-15T17:32:55.779Z,3.70
2023-03-15T17:35:24.949Z,2.70
2023-03-15T17:37:51.933Z,2.90
2023-03-15T17:40:27.228Z,3.38
2023-03-15T17:42:58.697Z,4.10
2023-03-15T17:45:37.027Z,3.45
2023-03-15T17:48:04.584Z,3.13
2023-03-15T17:50:32.859Z,3.40
2023-03-15T17:53:08.017Z,2.35
2023-03-15T17:55:35.277Z,4.82
2023-03-15T17:58:02.993Z,3.83
2023-03-15T18:00:32.838Z,1.20
2023-03-15T18:03:01.170Z,4.32
2023-03-15T18:05:29.030Z,3.80
2023-03-15T18:08:00.237Z,5.55
2023-03-15T18:10:32.062Z,5.60
2023-03-15T18:13:02.079Z,4.75
2023-03-15T18:15:29.143Z,4.07
2023-03-15T18:17:56.168Z,5.47
2023-03-15T18:20:24.178Z,3.88
2023-03-15T18:22:51.585Z,9.40
2023-03-15T18:25:26.200Z,5.65
2023-03-15T18:27:53.573Z,7.82
2023-03-15T18:30:25.784Z,5.63
2023-03-15T18:32:53.619Z,4.45
2023-03-15T18:35:24.461Z,3.75
2023-03-15T18:37:51.717Z,2.45
2023-03-15T18:40:19.383Z,3.40
2023-03-15T18:42:50.208Z,7.30
2023-03-15T18:45:31.276Z,2.75
2023-03-15T18:48:00.198Z,3.08
2023-03-15T18:50:27.760Z,5.10
2023-03-15T18:52:57.784Z,6.50
2023-03-15T18:55:24.710Z,5.03
2023-03-15T18:57:52.346Z,9.40
2023-03-15T19:00:35.976Z,3.45
2023-03-15T19:03:03.843Z,4.38
2023-03-15T19:05:32.661Z,3.10
2023-03-15T19:07:59.713Z,4.18
2023-03-15T19:10:29.293Z,6.57
2023-03-15T19:12:56.211Z,3.55
2023-03-15T19:15:23.931Z,5.47
2023-03-15T19:17:51.967Z,5.80
2023-03-15T19:20:22.914Z,6.10
2023-03-15T19:22:51.217Z,6.15
2023-03-15T19:25:18.487Z,3.22
2023-03-15T19:27:45.698Z,0.98
2023-03-15T19:30:19.428Z,4.72
2023-03-15T19:32:50.158Z,5.00
2023-03-15T19:35:19.460Z,3.35
2023-03-15T19:37:47.031Z,4.82
2023-03-15T19:40:16.994Z,4.65
2023-03-15T19:42:44.493Z,4.40
2023-03-15T19:45:12.682Z,8.50
2023-03-15T19:47:40.051Z,4.38
2023-03-15T19:50:07.699Z,6.18
2023-03-15T19:52:35.259Z,1.75
2023-03-15T19:55:13.589Z,5.90
2023-03-15T19:58:04.069Z,5.15
2023-03-15T20:00:31.756Z,4.40
2023-03-15T20:03:04.694Z,2.78
2023-03-15T20:05:45.953Z,3.25
2023-03-15T20:08:16.869Z,5.65
2023-03-15T20:11:00.795Z,3.33
2023-03-15T20:13:29.767Z,4.55
2023-03-15T20:16:00.119Z,2.30
2023-03-15T20:18:35.000Z,3.08
2023-03-15T20:21:12.337Z,4.53
2023-03-15T20:23:57.174Z,4.28
2023-03-15T20:29:13.197Z,6.35
2023-03-15T20:31:47.273Z,1.75
2023-03-15T20:37:49.061Z,3.28
2023-03-15T20:40:25.858Z,3.78
2023-03-15T20:43:27.053Z,3.83
2023-03-15T20:46:00.529Z,3.97
2023-03-15T20:48:30.346Z,2.35
2023-03-15T20:51:04.306Z,3.88
2023-03-15T20:53:55.838Z,3.25
2023-03-15T20:56:23.907Z,6.53
2023-03-15T20:59:15.748Z,2.33
2023-03-15T21:01:50.606Z,7.22
2023-03-15T21:04:34.017Z,4.72
2023-03-15T21:07:04.683Z,2.88
2023-03-15T21:09:46.390Z,3.55
2023-03-15T21:12:28.033Z,2.38
2023-03-15T21:14:58.884Z,2.75
2023-03-15T21:17:32.400Z,3.10
2023-03-15T21:20:02.280Z,1.80
2023-03-15T21:22:31.797Z,2.55
2023-03-15T21:25:12.459Z,5.07
2023-03-15T21:27:41.094Z,5.55
2023-03-15T21:30:10.935Z,4.88
2023-03-15T21:32:56.869Z,6.22
2023-03-15T21:36:13.255Z,4.90
2023-03-15T21:42:28.380Z,4.75
2023-03-15T21:44:56.475Z,3.03
2023-03-15T21:47:23.640Z,5.53
2023-03-15T21:49:54.163Z,4.15
2023-03-15T21:52:21.455Z,2.83
2023-03-15T21:54:48.548Z,4.05
2023-03-15T21:57:18.365Z,4.07
2023-03-15T21:59:45.427Z,3.88
2023-03-15T22:02:15.508Z,5.68
2023-03-15T22:04:45.179Z,2.15
2023-03-15T22:07:13.830Z,6.57
2023-03-15T22:09:44.608Z,4.22
2023-03-15T22:12:12.975Z,4.78
2023-03-15T22:14:42.194Z,4.32
2023-03-15T22:17:09.131Z,7.82
2023-03-15T22:19:39.185Z,3.53
2023-03-15T22:22:06.159Z,5.78
2023-03-15T22:24:36.772Z,5.05
2023-03-15T22:27:04.142Z,5.07
2023-03-15T22:29:31.196Z,3.13
2023-03-15T22:31:58.118Z,6.55
2023-03-15T22:34:27.566Z,2.40
2023-03-15T22:36:57.191Z,6.75
2023-03-15T22:39:24.059Z,1.75
2023-03-15T22:41:50.938Z,5.30
2023-03-15T22:44:30.355Z,5.72
2023-03-15T22:47:04.504Z,9.32
2023-03-15T22:52:48.319Z,5.55
2023-03-15T22:55:15.446Z,5.38
2023-03-15T22:57:42.406Z,4.35
2023-03-15T23:00:14.196Z,4.80
2023-03-15T23:02:42.361Z,3.80
2023-03-15T23:05:09.986Z,4.70
2023-03-15T23:07:36.995Z,4.53
2023-03-15T23:10:06.208Z,3.30
2023-03-15T23:12:36.852Z,4.85
2023-03-15T23:15:04.724Z,3.90
2023-03-15T23:17:31.851Z,2.10
2023-03-15T23:19:59.098Z,4.40
2023-03-15T23:22:26.457Z,4.00
2023-03-15T23:24:58.103Z,6.78
2023-03-15T23:27:26.169Z,3.97
2023-03-15T23:29:54.784Z,3.10
2023-03-15T23:32:23.151Z,2.80
2023-03-15T23:34:50.201Z,5.03
2023-03-15T23:37:17.255Z,7.13
2023-03-15T23:39:44.251Z,3.08
2023-03-15T23:42:11.571Z,5.70
2023-03-15T23:44:38.736Z,3.03
2023-03-15T23:47:06.708Z,14.80
2023-03-15T23:49:34.123Z,5.82
2023-03-15T23:52:05.990Z,4.60
2023-03-15T23:54:39.930Z,9.40
2023-03-15T23:57:13.646Z,8.75
2023-03-15T23:59:41.568Z,8.05
